createdAt,value
2023-04-03T00:02:01.498Z,10.50
2023-04-03T00:04:47.807Z,10.48
2023-04-03T00:07:38.884Z,10.42
2023-04-03T00:10:24.933Z,10.43
2023-04-03T00:13:41.359Z,10.41
2023-04-03T00:17:10.613Z,10.36
2023-04-03T00:19:56.639Z,10.30
2023-04-03T00:22:42.341Z,10.23
2023-04-03T00:25:27.947Z,10.23
2023-04-03T00:28:13.651Z,10.22
2023-04-03T00:31:27.401Z,10.20
2023-04-03T00:34:13.316Z,10.18
2023-04-03T00:36:59.148Z,10.19
2023-04-03T00:39:44.847Z,10.18
2023-04-03T00:42:48.266Z,10.15
2023-04-03T00:45:37.955Z,10.17
2023-04-03T00:52:55.552Z,10.12
2023-04-03T00:55:41.933Z,10.09
2023-04-03T00:58:34.826Z,10.08
2023-04-03T01:01:39.752Z,10.06
2023-04-03T01:04:40.886Z,9.99
2023-04-03T01:07:31.854Z,9.98
2023-04-03T01:10:20.622Z,9.92
2023-04-03T01:14:25.392Z,9.78
2023-04-03T01:17:36.370Z,9.66
2023-04-03T01:20:38.653Z,9.62
2023-04-03T01:23:33.305Z,9.60
2023-04-03T01:26:19.233Z,9.58
2023-04-03T01:29:10.934Z,9.55
2023-04-03T01:31:58.831Z,9.54
2023-04-03T01:34:44.662Z,9.47
2023-04-03T01:37:30.547Z,9.41
2023-04-03T01:40:16.472Z,9.37
2023-04-03T01:43:02.893Z,9.31
2023-04-03T01:45:50.392Z,9.27
2023-04-03T01:48:37.003Z,9.25
2023-04-03T01:51:23.044Z,9.18
2023-04-03T01:54:56.640Z,9.11
2023-04-03T01:57:42.610Z,9.09
2023-04-03T02:00:28.551Z,9.04
2023-04-03T02:03:14.151Z,9.03
2023-04-03T02:05:59.881Z,9.01
2023-04-03T02:08:45.772Z,8.96
2023-04-03T02:11:41.679Z,8.93
2023-04-03T02:14:28.492Z,8.91
2023-04-03T02:17:14.423Z,8.89
2023-04-03T02:20:00.747Z,8.90
2023-04-03T02:22:46.730Z,8.89
2023-04-03T02:25:32.926Z,8.86
2023-04-03T02:28:18.580Z,8.92
2023-04-03T02:31:05.353Z,8.93
2023-04-03T02:33:51.806Z,8.92
2023-04-03T02:36:38.345Z,8.90
2023-04-03T02:39:27.395Z,8.87
2023-04-03T02:42:14.680Z,8.83
2023-04-03T02:45:01.539Z,8.80
2023-04-03T02:47:47.559Z,8.76
2023-04-03T02:50:33.106Z,8.76
2023-04-03T02:53:19.453Z,8.74
2023-04-03T02:56:08.916Z,8.68
2023-04-03T02:58:55.298Z,8.63
2023-04-03T03:01:41.384Z,8.61
2023-04-03T03:04:27.327Z,8.59
2023-04-03T03:07:12.857Z,8.54
2023-04-03T03:09:58.634Z,8.51
2023-04-03T03:12:46.419Z,8.49
2023-04-03T03:15:32.272Z,8.47
2023-04-03T03:18:17.918Z,8.47
2023-04-03T03:21:04.591Z,8.46
2023-04-03T03:23:51.866Z,8.40
2023-04-03T03:26:37.678Z,8.38
2023-04-03T03:29:24.414Z,8.33
2023-04-03T03:32:10.280Z,8.29
2023-04-03T03:34:56.017Z,8.21
2023-04-03T03:37:41.703Z,8.20
2023-04-03T03:40:28.047Z,8.16
2023-04-03T03:43:13.676Z,8.11
2023-04-03T03:45:59.467Z,8.04
2023-04-03T03:48:46.651Z,8.01
2023-04-03T03:51:32.287Z,7.99
2023-04-03T03:54:17.919Z,7.94
2023-04-03T03:57:03.815Z,7.98
2023-04-03T03:59:52.746Z,7.96
2023-04-03T04:02:39.482Z,7.92
2023-04-03T04:05:25.329Z,7.91
2023-04-03T04:08:12.573Z,7.88
2023-04-03T04:10:58.697Z,7.88
2023-04-03T04:13:44.449Z,7.82
2023-04-03T04:16:32.595Z,7.77
2023-04-03T04:19:23.302Z,7.77
2023-04-03T04:22:08.996Z,7.72
2023-04-03T04:24:54.814Z,7.65
2023-04-03T04:27:40.594Z,7.63
2023-04-03T04:30:28.451Z,7.63
2023-04-03T04:33:17.342Z,7.63
2023-04-03T04:36:04.211Z,7.60
2023-04-03T04:38:53.856Z,7.63
2023-04-03T04:41:41.840Z,7.61
2023-04-03T04:44:29.131Z,7.61
2023-04-03T04:47:30.104Z,7.59
2023-04-03T04:50:16.268Z,7.62
2023-04-03T04:53:02.299Z,7.61
2023-04-03T04:55:48.082Z,7.64
2023-04-03T04:58:33.747Z,7.67
2023-04-03T05:01:21.094Z,7.71
2023-04-03T05:04:34.401Z,7.74
2023-04-03T05:08:34.452Z,7.78
2023-04-03T05:12:41.326Z,7.84
2023-04-03T05:15:27.787Z,7.88
2023-04-03T05:18:13.779Z,7.91
2023-04-03T05:21:07.976Z,7.93
2023-04-03T05:23:53.790Z,8.00
2023-04-03T05:26:40.606Z,8.07
2023-04-03T05:29:27.484Z,8.13
2023-04-03T05:37:23.576Z,8.34
2023-04-03T05:40:12.131Z,8.39
2023-04-03T05:43:02.006Z,8.45
2023-04-03T05:45:53.218Z,8.51
2023-04-03T05:48:40.914Z,8.60
2023-04-03T05:51:32.950Z,8.70
2023-04-03T05:54:34.674Z,8.81
2023-04-03T05:57:33.104Z,8.92
2023-04-03T06:00:19.768Z,9.01
2023-04-03T06:03:15.099Z,9.12
2023-04-03T06:06:04.717Z,9.19
2023-04-03T06:08:51.214Z,9.25
2023-04-03T06:11:37.185Z,9.31
2023-04-03T06:14:22.882Z,9.34
2023-04-03T06:17:10.054Z,9.41
2023-04-03T06:19:58.933Z,9.45
2023-04-03T06:22:45.519Z,9.57
2023-04-03T06:25:34.717Z,9.62
2023-04-03T06:28:20.870Z,9.69
2023-04-03T06:31:06.764Z,9.77
2023-04-03T06:33:53.353Z,9.85
2023-04-03T06:36:40.232Z,9.93
2023-04-03T06:39:26.656Z,10.03
2023-04-03T06:42:14.902Z,10.08
2023-04-03T06:45:13.701Z,10.08
2023-04-03T06:48:05.289Z,10.13
2023-04-03T06:50:51.790Z,10.18
2023-04-03T06:53:37.860Z,10.20
2023-04-03T06:56:24.090Z,10.26
2023-04-03T06:59:10.810Z,10.32
2023-04-03T07:02:02.495Z,10.38
2023-04-03T07:04:49.087Z,10.45
2023-04-03T07:07:39.680Z,10.52
2023-04-03T07:10:26.696Z,10.60
2023-04-03T07:13:14.974Z,10.74
2023-04-03T07:16:07.818Z,10.85
2023-04-03T07:19:00.402Z,11.00
2023-04-03T07:21:49.316Z,11.09
2023-04-03T07:24:35.811Z,11.23
2023-04-03T07:27:21.569Z,11.32
2023-04-03T07:30:08.842Z,11.46
2023-04-03T07:32:54.754Z,11.53
2023-04-03T07:35:43.859Z,11.60
2023-04-03T07:38:30.159Z,11.70
2023-04-03T07:41:18.625Z,11.74
2023-04-03T07:44:05.698Z,11.79
2023-04-03T07:46:51.988Z,11.84
2023-04-03T07:49:40.695Z,11.92
2023-04-03T07:52:26.847Z,12.02
2023-04-03T07:55:12.911Z,12.13
2023-04-03T07:57:59.028Z,12.26
2023-04-03T08:00:45.256Z,12.38
2023-04-03T08:03:31.311Z,12.56
2023-04-03T08:06:19.967Z,12.69
2023-04-03T08:09:07.580Z,12.82
2023-04-03T08:11:54.608Z,12.94
2023-04-03T08:14:40.867Z,13.01
2023-04-03T08:17:27.379Z,13.08
2023-04-03T08:20:13.679Z,13.19
2023-04-03T08:22:59.584Z,13.30
2023-04-03T08:25:45.659Z,13.38
2023-04-03T08:28:31.325Z,13.43
2023-04-03T08:31:19.613Z,13.46
2023-04-03T08:34:05.226Z,13.52
2023-04-03T08:36:51.044Z,13.60
2023-04-03T08:39:36.786Z,13.67
2023-04-03T08:42:54.770Z,13.71
2023-04-03T08:45:52.354Z,13.76
2023-04-03T08:48:42.670Z,13.85
2023-04-03T08:51:28.934Z,13.90
2023-04-03T08:54:35.537Z,13.96
2023-04-03T08:57:37.460Z,14.04
2023-04-03T09:00:25.451Z,14.13
2023-04-03T09:03:15.103Z,14.20
2023-04-03T09:06:23.047Z,14.24
2023-04-03T09:09:16.139Z,14.27
2023-04-03T09:12:16.898Z,14.32
2023-04-03T09:15:24.837Z,14.37
2023-04-03T09:18:33.124Z,14.42
2023-04-03T09:21:29.820Z,14.49
2023-04-03T09:24:17.350Z,14.54
2023-04-03T09:27:06.845Z,14.52
2023-04-03T09:29:55.361Z,14.47
2023-04-03T09:32:41.730Z,14.46
2023-04-03T09:35:40.609Z,14.43
2023-04-03T09:38:35.077Z,14.44
2023-04-03T09:41:21.249Z,14.47
2023-04-03T09:44:22.391Z,14.45
2023-04-03T09:47:25.278Z,14.46
2023-04-03T09:50:14.268Z,14.49
2023-04-03T09:53:00.204Z,14.51
2023-04-03T09:55:46.831Z,14.51
2023-04-03T09:58:50.530Z,14.51
2023-04-03T10:01:40.005Z,14.54
2023-04-03T10:04:27.007Z,14.50
2023-04-03T10:07:27.963Z,14.37
2023-04-03T10:10:25.013Z,14.28
2023-04-03T10:13:22.218Z,14.17
2023-04-03T10:16:10.459Z,14.09
2023-04-03T10:19:19.762Z,14.02
2023-04-03T10:22:28.990Z,13.96
2023-04-03T10:25:17.552Z,13.90
2023-04-03T10:28:31.054Z,13.81
2023-04-03T10:31:25.888Z,13.77
2023-04-03T10:34:26.085Z,13.76
2023-04-03T10:37:54.759Z,13.80
2023-04-03T10:40:58.908Z,13.89
2023-04-03T10:44:05.192Z,14.00
2023-04-03T10:46:54.899Z,14.07
2023-04-03T10:49:42.544Z,14.13
2023-04-03T10:53:11.318Z,14.09
2023-04-03T10:55:59.612Z,14.08
2023-04-03T10:59:19.007Z,14.04
2023-04-03T11:02:34.854Z,13.99
2023-04-03T11:05:45.018Z,13.95
2023-04-03T11:08:43.687Z,13.93
2023-04-03T11:11:36.361Z,13.95
2023-04-03T11:14:28.544Z,14.02
2023-04-03T11:17:20.462Z,14.05
2023-04-03T11:20:28.746Z,14.01
2023-04-03T11:23:48.741Z,14.42
2023-04-03T11:26:40.905Z,15.28
2023-04-03T11:29:37.720Z,15.76
2023-04-03T11:33:00.691Z,15.92
2023-04-03T11:35:48.540Z,16.20
2023-04-03T11:38:37.457Z,16.78
2023-04-03T11:41:27.745Z,17.26
2023-04-03T11:44:37.778Z,17.31
2023-04-03T11:47:51.457Z,17.13
2023-04-03T11:50:42.114Z,16.98
2023-04-03T11:53:40.248Z,17.20
2023-04-03T11:56:28.023Z,17.86
2023-04-03T11:59:24.522Z,18.45
2023-04-03T12:02:51.676Z,18.98
2023-04-03T12:05:44.398Z,19.34
2023-04-03T12:08:42.834Z,19.07
2023-04-03T12:11:32.667Z,18.65
2023-04-03T12:14:19.145Z,18.32
2023-04-03T12:17:25.612Z,17.88
2023-04-03T12:20:51.811Z,17.34
2023-04-03T12:24:09.135Z,17.08
2023-04-03T12:26:58.234Z,16.91
2023-04-03T12:30:05.015Z,16.59
2023-04-03T12:33:12.529Z,16.41
2023-04-03T12:36:19.620Z,16.51
2023-04-03T12:39:07.429Z,16.72
2023-04-03T12:42:10.713Z,16.92
2023-04-03T12:44:59.614Z,16.83
2023-04-03T12:47:46.428Z,16.39
2023-04-03T12:50:37.184Z,15.81
2023-04-03T12:53:39.635Z,15.25
2023-04-03T12:56:28.266Z,14.89
2023-04-03T12:59:27.778Z,14.47
2023-04-03T13:02:27.354Z,14.21
2023-04-03T13:05:18.651Z,13.91
2023-04-03T13:08:09.708Z,13.76
2023-04-03T13:11:00.583Z,13.66
2023-04-03T13:13:58.811Z,13.44
2023-04-03T13:17:05.733Z,13.25
2023-04-03T13:19:52.441Z,13.04
2023-04-03T13:22:49.599Z,12.77
2023-04-03T13:25:37.803Z,12.43
2023-04-03T13:28:25.014Z,12.04
2023-04-03T13:31:15.218Z,11.79
2023-04-03T13:34:10.508Z,11.52
2023-04-03T13:36:59.528Z,11.27
2023-04-03T13:39:45.462Z,11.04
2023-04-03T13:42:34.140Z,10.84
2023-04-03T13:45:31.055Z,10.67
2023-04-03T13:48:23.729Z,10.55
2023-04-03T13:51:12.865Z,10.46
2023-04-03T13:54:11.464Z,10.32
2023-04-03T13:56:58.716Z,10.19
2023-04-03T13:59:45.791Z,10.12
2023-04-03T14:02:33.793Z,10.08
2023-04-03T14:05:22.454Z,9.99
2023-04-03T14:08:08.503Z,9.86
2023-04-03T14:10:54.662Z,9.75
2023-04-03T14:13:40.602Z,9.67
2023-04-03T14:16:30.644Z,9.58
2023-04-03T14:19:22.774Z,9.46
2023-04-03T14:22:36.417Z,9.36
2023-04-03T14:25:24.933Z,9.30
2023-04-03T14:28:18.117Z,9.26
2023-04-03T14:31:03.874Z,9.21
2023-04-03T14:33:50.519Z,9.17
2023-04-03T14:36:36.702Z,9.13
2023-04-03T14:39:22.978Z,9.12
2023-04-03T14:42:15.719Z,9.11
2023-04-03T14:45:04.394Z,9.08
2023-04-03T14:47:52.961Z,8.97
2023-04-03T14:50:38.961Z,8.90
2023-04-03T14:53:37.908Z,8.90
2023-04-03T14:56:29.060Z,8.85
2023-04-03T14:59:16.519Z,8.85
2023-04-03T15:02:02.225Z,8.73
2023-04-03T15:04:48.237Z,8.71
2023-04-03T15:07:39.172Z,8.60
2023-04-03T15:10:27.283Z,8.54
2023-04-03T15:13:13.888Z,8.44
2023-04-03T15:16:00.537Z,8.36
2023-04-03T15:18:47.539Z,8.28
2023-04-03T15:21:33.527Z,8.23
2023-04-03T15:24:19.596Z,8.18
2023-04-03T15:27:05.227Z,8.15
2023-04-03T15:29:51.441Z,8.12
2023-04-03T15:32:37.538Z,8.03
2023-04-03T15:35:24.005Z,7.92
2023-04-03T16:03:36.133Z,7.24
2023-04-03T16:06:22.605Z,7.18
2023-04-03T16:09:10.069Z,7.15
2023-04-03T16:11:56.246Z,7.15
2023-04-03T16:14:42.424Z,7.08
2023-04-03T16:17:28.833Z,7.05
2023-04-03T16:20:15.769Z,7.02
2023-04-03T16:23:02.240Z,6.97
2023-04-03T16:25:49.027Z,6.96
2023-04-03T16:28:34.874Z,6.97
2023-04-03T16:31:21.468Z,6.92
2023-04-03T16:34:07.491Z,6.89
2023-04-03T16:36:56.214Z,6.91
2023-04-03T16:39:41.933Z,6.89
2023-04-03T16:42:27.607Z,6.83
2023-04-03T16:45:13.568Z,6.77
2023-04-03T16:47:59.386Z,6.72
2023-04-03T16:50:50.051Z,6.62
2023-04-03T16:53:36.939Z,6.58
2023-04-03T16:56:23.291Z,6.57
2023-04-03T16:59:09.269Z,6.52
2023-04-03T17:01:55.693Z,6.55
2023-04-03T17:04:41.606Z,6.51
2023-04-03T17:07:27.458Z,6.45
2023-04-03T17:10:17.783Z,6.44
2023-04-03T17:13:12.428Z,6.41
2023-04-03T17:15:59.982Z,6.39
2023-04-03T17:18:45.801Z,6.35
2023-04-03T17:21:32.713Z,6.36
2023-04-03T17:24:18.536Z,6.39
2023-04-03T17:27:04.619Z,6.38
2023-04-03T17:29:50.469Z,6.41
2023-04-03T17:32:39.173Z,6.35
2023-04-03T17:35:25.614Z,6.33
2023-04-03T17:38:11.305Z,6.34
2023-04-03T17:41:02.221Z,6.31
2023-04-03T17:43:47.999Z,6.37
2023-04-03T17:46:34.777Z,6.36
2023-04-03T17:49:22.526Z,6.31
2023-04-03T17:52:08.985Z,6.33
2023-04-03T17:54:55.031Z,6.32
2023-04-03T17:57:40.816Z,6.27
2023-04-03T18:00:27.826Z,6.32
2023-04-03T18:03:13.827Z,6.31
2023-04-03T18:06:03.575Z,6.27
2023-04-03T18:08:52.179Z,6.31
2023-04-03T18:11:38.568Z,6.35
2023-04-03T18:14:26.242Z,6.32
2023-04-03T18:17:12.133Z,6.43
2023-04-03T18:19:58.075Z,6.42
2023-04-03T18:22:44.103Z,6.44
2023-04-03T18:28:23.315Z,6.41
2023-04-03T18:31:13.377Z,6.43
2023-04-03T18:33:59.336Z,6.48
2023-04-03T18:36:46.589Z,6.46
2023-04-03T18:39:43.717Z,6.40
2023-04-03T18:42:29.800Z,6.31
2023-04-03T18:45:18.016Z,6.30
2023-04-03T18:48:16.495Z,6.25
2023-04-03T18:51:02.917Z,6.24
2023-04-03T18:53:48.910Z,6.28
2023-04-03T18:56:34.869Z,6.28
2023-04-03T18:59:21.605Z,6.29
2023-04-03T19:02:10.941Z,6.24
2023-04-03T19:04:56.807Z,6.23
2023-04-03T19:07:44.802Z,6.19
2023-04-03T19:10:31.054Z,6.20
2023-04-03T19:14:10.507Z,6.16
2023-04-03T19:17:03.142Z,6.16
2023-04-03T19:19:49.217Z,6.09
2023-04-03T19:22:35.280Z,6.07
2023-04-03T19:25:21.638Z,6.03
2023-04-03T19:28:07.496Z,6.00
2023-04-03T19:30:53.680Z,5.97
2023-04-03T19:33:42.551Z,5.94
2023-04-03T19:36:28.342Z,5.93
2023-04-03T19:39:15.573Z,5.86
2023-04-03T19:42:02.903Z,5.83
2023-04-03T19:44:54.840Z,5.77
2023-04-03T19:47:41.378Z,5.75
2023-04-03T19:50:27.349Z,5.71
2023-04-03T19:53:18.828Z,5.70
2023-04-03T19:56:04.986Z,5.68
2023-04-03T19:58:54.369Z,5.63
2023-04-03T20:01:47.528Z,5.65
2023-04-03T20:04:33.150Z,5.62
2023-04-03T20:07:18.831Z,5.58
2023-04-03T20:10:04.722Z,5.51
2023-04-03T20:17:34.619Z,5.38
2023-04-03T20:20:55.746Z,5.34
2023-04-03T20:23:41.875Z,5.33
2023-04-03T20:26:29.918Z,5.34
2023-04-03T20:29:16.825Z,5.30
2023-04-03T20:36:59.466Z,5.18
2023-04-03T20:40:25.987Z,5.09
2023-04-03T20:43:21.900Z,5.05
2023-04-03T20:49:49.041Z,4.90
2023-04-03T20:52:36.327Z,4.95
2023-04-03T20:55:22.715Z,4.89
2023-04-03T20:58:08.687Z,4.84
2023-04-03T21:00:56.599Z,4.78
2023-04-03T21:03:43.844Z,4.80
2023-04-03T21:11:49.215Z,4.68
2023-04-03T21:15:24.235Z,4.64
2023-04-03T21:18:10.075Z,4.64
2023-04-03T21:20:56.004Z,4.61
2023-04-03T21:25:13.159Z,4.58
2023-04-03T21:27:59.254Z,4.54
2023-04-03T21:30:45.166Z,4.52
2023-04-03T21:33:31.700Z,4.51
2023-04-03T21:36:20.695Z,4.45
2023-04-03T21:39:06.412Z,4.44
2023-04-03T21:41:52.551Z,4.37
2023-04-03T21:49:14.509Z,4.24
2023-04-03T21:52:00.335Z,4.22
2023-04-03T21:54:45.940Z,4.21
2023-04-03T22:03:00.539Z,4.09
2023-04-03T22:07:24.048Z,4.04
2023-04-03T22:10:10.010Z,4.06
2023-04-03T22:12:55.912Z,4.06
2023-04-03T22:25:06.064Z,4.05
2023-04-03T22:27:51.925Z,4.05
2023-04-03T22:30:39.697Z,4.07
2023-04-03T22:33:25.691Z,4.09
2023-04-03T22:36:12.725Z,4.15
2023-04-03T22:39:00.231Z,4.18
2023-04-03T22:41:46.212Z,4.16
2023-04-03T22:49:09.144Z,4.11
2023-04-03T22:51:54.750Z,4.07
2023-04-03T22:54:40.515Z,4.07
2023-04-03T22:57:26.575Z,4.08
2023-04-03T23:00:13.237Z,4.06
2023-04-03T23:03:00.916Z,4.04
2023-04-03T23:05:47.056Z,4.04
2023-04-03T23:08:35.184Z,4.05
2023-04-03T23:11:21.459Z,4.02
2023-04-03T23:14:07.354Z,4.05
2023-04-03T23:16:53.445Z,4.06
2023-04-03T23:19:39.418Z,4.00
2023-04-03T23:22:25.431Z,4.04
2023-04-03T23:25:11.492Z,4.08
2023-04-03T23:27:57.520Z,4.02
2023-04-03T23:30:43.722Z,4.03
2023-04-03T23:33:30.817Z,4.05
2023-04-03T23:36:17.006Z,3.96
2023-04-03T23:39:03.765Z,3.99
2023-04-03T23:41:50.232Z,3.97
2023-04-03T23:44:36.453Z,3.96
2023-04-03T23:47:22.199Z,3.94
2023-04-03T23:50:08.668Z,3.96
2023-04-03T23:52:54.392Z,3.94
2023-04-03T23:55:40.342Z,3.89
2023-04-03T23:58:26.347Z,3.87
